CheckWX is a tool to help pilots better visualize weather data.  It is not intended as a substitute for an official pre-flight weather briefing.

20:52:06 UTC

KNYC METAR
Central Park Airport
New York City, New York, USA
Current

1 hour ago

KNYC 201951Z AUTO VRB03KT 10SM SCT070 09/M06 A2997 RMK AO2 SLP139 T00891056 $
Observed
Nov-20 @ 19:51 UTC
Wind
  • Variable at 3 KTS
Visibility
10 SM
Flight Rules
VFR
Cloud Levels
  • Scattered at 7,000' AGL
Temperature
C / 48°F
Dewpoint
-6°C / 21°F
Humidity
34%
Altimeter
29.97" Hg
Pressure
1014.92 hPa
Previous

2 hours ago

KNYC 201851Z AUTO VRB03KT 10SM OVC041 08/M04 A2997 RMK AO2 SLP141 T00831044 $
Observed
Nov-20 @ 18:51 UTC
Wind
  • Variable at 3 KTS
Visibility
10 SM
Flight Rules
VFR
Cloud Levels
  • Overcast at 4,100' AGL
Temperature
C / 46°F
Dewpoint
-4°C / 25°F
Humidity
43%
Altimeter
29.97" Hg
Pressure
1014.92 hPa
Previous

3 hours ago

KNYC 201751Z AUTO VRB06KT 10SM BKN038 OVC060 08/M02 A2997 RMK AO2 SLP141 T00781022 10078 20044 58001 $
Observed
Nov-20 @ 17:51 UTC
Wind
  • Variable at 6 KTS
Visibility
10 SM
Flight Rules
VFR
Cloud Levels
  • Broken at 3,800' AGL
  • Overcast at 6,000' AGL
Temperature
C / 46°F
Dewpoint
-2°C / 28°F
Humidity
50%
Altimeter
29.97" Hg
Pressure
1014.92 hPa